createdAt,value
2022-12-05T00:00:26.269Z,101809.06
2022-12-05T00:05:30.150Z,101809.63
2022-12-05T00:10:31.795Z,101812.50
2022-12-05T00:15:41.180Z,101817.88
2022-12-05T00:20:51.296Z,101807.72
2022-12-05T00:25:52.865Z,101806.81
2022-12-05T00:30:59.536Z,101811.78
2022-12-05T00:36:06.496Z,101807.50
2022-12-05T00:41:11.527Z,101807.28
2022-12-05T00:46:16.937Z,101801.09
2022-12-05T00:51:28.377Z,101807.88
2022-12-05T00:56:31.041Z,101804.78
2022-12-05T01:01:38.539Z,101811.03
2022-12-05T01:06:41.099Z,101809.97
2022-12-05T01:11:43.489Z,101795.47
2022-12-05T01:16:47.485Z,101805.50
2022-12-05T01:21:49.806Z,101801.78
2022-12-05T01:26:52.302Z,101801.13
2022-12-05T01:31:54.826Z,101802.41
2022-12-05T01:36:56.562Z,101806.38
2022-12-05T01:41:58.276Z,101812.19
2022-12-05T01:46:59.913Z,101817.59
2022-12-05T01:52:18.927Z,101812.81
2022-12-05T01:57:20.658Z,101808.72
2022-12-05T02:02:22.735Z,101811.78
2022-12-05T02:07:24.776Z,101811.31
2022-12-05T02:12:26.843Z,101813.91
2022-12-05T02:17:54.114Z,101811.56
2022-12-05T02:23:17.805Z,101806.75
2022-12-05T02:28:44.482Z,101805.03
2022-12-05T02:33:50.640Z,101804.81
2022-12-05T02:39:12.658Z,101807.13
2022-12-05T02:44:23.049Z,101810.34
2022-12-05T02:49:30.482Z,101816.69
2022-12-05T02:54:41.804Z,101817.06
2022-12-05T02:59:43.444Z,101818.19
2022-12-05T03:04:45.117Z,101819.22
2022-12-05T03:09:59.394Z,101816.09
2022-12-05T03:15:07.674Z,101818.09
2022-12-05T03:20:15.315Z,101816.47
2022-12-05T03:25:17.734Z,101817.28
2022-12-05T03:30:22.666Z,101825.47
2022-12-05T03:35:43.578Z,101833.16
2022-12-05T03:40:54.581Z,101837.69
2022-12-05T03:46:00.840Z,101844.09
2022-12-05T03:51:06.518Z,101840.88
2022-12-05T03:56:13.450Z,101843.84
2022-12-05T04:01:18.425Z,101847.31
2022-12-05T04:06:26.759Z,101850.59
2022-12-05T04:11:33.209Z,101848.19
2022-12-05T04:17:05.717Z,101847.69
2022-12-05T04:22:07.486Z,101845.59
2022-12-05T04:27:27.956Z,101853.06
2022-12-05T04:32:32.584Z,101845.47
2022-12-05T04:37:39.576Z,101852.03
2022-12-05T04:42:43.170Z,101846.56
2022-12-05T04:47:51.080Z,101838.50
2022-12-05T04:52:57.032Z,101835.66
2022-12-05T04:58:11.944Z,101830.81
2022-12-05T05:03:24.872Z,101837.13
2022-12-05T05:08:29.108Z,101832.56
2022-12-05T05:13:30.685Z,101838.63
2022-12-05T05:18:32.729Z,101843.47
2022-12-05T05:23:34.586Z,101847.38
2022-12-05T05:28:36.317Z,101839.88
2022-12-05T05:33:38.654Z,101842.38
2022-12-05T05:38:43.354Z,101846.47
2022-12-05T05:43:45.899Z,101841.78
2022-12-05T05:48:47.943Z,101837.94
2022-12-05T05:53:49.802Z,101841.78
2022-12-05T05:59:01.980Z,101844.72
2022-12-05T06:04:03.799Z,101839.25
2022-12-05T06:09:07.347Z,101837.19
2022-12-05T06:14:09.620Z,101848.25
2022-12-05T06:19:11.295Z,101848.88
2022-12-05T06:24:12.983Z,101851.03
2022-12-05T06:29:14.640Z,101852.56
2022-12-05T06:34:16.440Z,101855.78
2022-12-05T06:39:18.210Z,101855.81
2022-12-05T06:44:21.704Z,101867.34
2022-12-05T06:49:30.753Z,101863.75
2022-12-05T06:54:34.499Z,101862.25
2022-12-05T06:59:36.449Z,101871.16
2022-12-05T07:04:38.075Z,101876.50
2022-12-05T07:09:51.616Z,101877.91
2022-12-05T07:14:53.306Z,101878.41
2022-12-05T07:19:54.990Z,101887.47
2022-12-05T07:24:56.725Z,101890.69
2022-12-05T07:29:58.700Z,101904.84
2022-12-05T07:35:00.605Z,101892.81
2022-12-05T07:40:02.309Z,101895.28
2022-12-05T07:45:04.515Z,101894.38
2022-12-05T07:50:07.063Z,101908.19
2022-12-05T07:55:09.121Z,101907.91
2022-12-05T08:00:11.411Z,101919.31
2022-12-05T08:05:15.979Z,101912.28
2022-12-05T08:10:17.715Z,101907.31
2022-12-05T08:15:19.310Z,101918.31
2022-12-05T08:20:20.958Z,101927.66
2022-12-05T08:25:22.617Z,101930.75
2022-12-05T08:30:24.312Z,101932.72
2022-12-05T08:35:26.286Z,101928.78
2022-12-05T08:40:27.959Z,101941.66
2022-12-05T08:45:29.618Z,101937.22
2022-12-05T08:50:31.185Z,101942.53
2022-12-05T08:55:34.940Z,101949.34
2022-12-05T09:00:36.589Z,101947.03
2022-12-05T09:05:38.812Z,101946.69
2022-12-05T09:10:40.533Z,101954.03
2022-12-05T09:15:42.289Z,101959.59
2022-12-05T09:20:44.548Z,101953.41
2022-12-05T09:25:58.109Z,101965.19
2022-12-05T09:31:02.160Z,101975.47
2022-12-05T09:36:33.323Z,101976.81
2022-12-05T09:42:07.976Z,101982.69
2022-12-05T09:47:36.473Z,101977.97
2022-12-05T09:52:41.565Z,101979.78
2022-12-05T09:57:51.750Z,101990.81
2022-12-05T10:03:05.318Z,101985.03
2022-12-05T10:08:26.482Z,101989.38
2022-12-05T10:13:46.040Z,101987.81
2022-12-05T10:18:53.702Z,101975.97
2022-12-05T10:24:02.882Z,101979.25
2022-12-05T10:29:14.928Z,101983.97
2022-12-05T10:34:26.981Z,101976.13
2022-12-05T10:39:28.695Z,101968.91
2022-12-05T10:44:32.147Z,101973.78
2022-12-05T10:49:34.513Z,101970.91
2022-12-05T10:54:44.384Z,101964.81
2022-12-05T10:59:47.645Z,101980.75
2022-12-05T11:04:51.159Z,101965.34
2022-12-05T11:09:54.534Z,101968.91
2022-12-05T11:15:25.586Z,101970.56
2022-12-05T11:20:27.341Z,101967.31
2022-12-05T11:25:32.910Z,101972.16
2022-12-05T11:30:34.720Z,101963.84
2022-12-05T11:35:37.941Z,101967.69
2022-12-05T11:41:04.387Z,101969.56
2022-12-05T11:46:22.252Z,101962.72
2022-12-05T11:52:04.100Z,101964.56
2022-12-05T11:57:34.077Z,101966.56
2022-12-05T12:03:03.024Z,101962.84
2022-12-05T12:08:28.456Z,101960.97
2022-12-05T12:13:36.035Z,101955.50
2022-12-05T12:18:53.298Z,101950.28
2022-12-05T12:24:19.094Z,101953.88
2022-12-05T12:29:20.650Z,101950.03
2022-12-05T12:34:46.226Z,101958.97
2022-12-05T12:40:13.186Z,101946.66
2022-12-05T12:45:46.084Z,101951.63
2022-12-05T12:50:52.821Z,101947.47
2022-12-05T12:56:06.605Z,101947.94
2022-12-05T13:01:36.406Z,101946.34
2022-12-05T13:06:49.575Z,101943.06
2022-12-05T13:11:53.315Z,101945.47
2022-12-05T13:16:58.187Z,101946.34
2022-12-05T13:22:00.813Z,101940.31
2022-12-05T13:27:06.939Z,101944.63
2022-12-05T13:32:36.300Z,101953.66
2022-12-05T13:38:05.275Z,101947.44
2022-12-05T13:43:07.530Z,101942.28
2022-12-05T13:48:26.450Z,101944.22
2022-12-05T13:53:39.477Z,101946.22
2022-12-05T13:58:43.915Z,101946.44
2022-12-05T14:03:48.663Z,101953.28
2022-12-05T14:08:52.686Z,101946.09
2022-12-05T14:13:58.007Z,101954.13
2022-12-05T14:19:33.893Z,101949.56
2022-12-05T14:24:50.251Z,101949.56
2022-12-05T14:30:16.183Z,101952.84
2022-12-05T14:35:25.493Z,101953.91
2022-12-05T14:40:40.727Z,101961.28
2022-12-05T14:45:58.333Z,101960.38
2022-12-05T14:51:02.913Z,101967.69
2022-12-05T14:56:16.281Z,101969.19
2022-12-05T15:01:28.748Z,101969.56
2022-12-05T15:06:33.536Z,101976.53
2022-12-05T15:11:37.972Z,101975.47
2022-12-05T15:16:43.811Z,101972.44
2022-12-05T15:21:56.783Z,101972.94
2022-12-05T15:27:03.569Z,101976.34
2022-12-05T15:32:11.330Z,101993.31
2022-12-05T15:37:28.358Z,101987.41
2022-12-05T15:42:35.767Z,101990.88
2022-12-05T15:47:38.977Z,101991.50
2022-12-05T15:52:53.927Z,101990.97
2022-12-05T15:58:13.043Z,102000.66
2022-12-05T16:03:38.794Z,101990.97
2022-12-05T16:08:47.893Z,101993.72
2022-12-05T16:13:58.418Z,101997.31
2022-12-05T16:19:05.507Z,101991.47
2022-12-05T16:24:30.276Z,101996.31
2022-12-05T16:29:35.033Z,101999.47
2022-12-05T16:34:36.803Z,102002.50
2022-12-05T16:39:38.978Z,102004.03
2022-12-05T16:44:46.387Z,102002.97
2022-12-05T16:49:48.084Z,101999.19
2022-12-05T16:54:52.212Z,102000.66
2022-12-05T16:59:56.929Z,101999.19
2022-12-05T17:05:03.135Z,101998.31
2022-12-05T17:10:05.696Z,102005.16
2022-12-05T17:15:15.255Z,102002.44
2022-12-05T17:20:18.453Z,102002.47
2022-12-05T17:25:33.768Z,102000.91
2022-12-05T17:30:35.452Z,102011.16
2022-12-05T17:35:37.846Z,102015.91
2022-12-05T17:40:40.306Z,102017.78
2022-12-05T17:45:43.271Z,102021.81
2022-12-05T17:50:47.985Z,102026.56
2022-12-05T17:55:49.735Z,102023.81
2022-12-05T18:00:51.378Z,102026.56
2022-12-05T18:05:53.019Z,102036.13
2022-12-05T18:10:56.206Z,102027.06
2022-12-05T18:15:58.252Z,102029.91
2022-12-05T18:21:08.262Z,102023.31
2022-12-05T18:26:10.640Z,102027.91
2022-12-05T18:31:17.124Z,102037.38
2022-12-05T18:36:21.070Z,102035.47
2022-12-05T18:41:23.833Z,102037.94
2022-12-05T18:46:25.540Z,102052.91
2022-12-05T18:51:27.949Z,102045.91
2022-12-05T18:56:34.723Z,102048.22
2022-12-05T19:01:38.851Z,102057.34
2022-12-05T19:06:43.285Z,102061.81
2022-12-05T19:11:47.800Z,102059.13
2022-12-05T19:16:58.008Z,102065.44
2022-12-05T19:22:02.420Z,102068.81
2022-12-05T19:27:04.235Z,102066.72
2022-12-05T19:32:06.065Z,102061.50
2022-12-05T19:37:07.833Z,102067.00
2022-12-05T19:42:09.525Z,102066.19
2022-12-05T19:47:11.272Z,102067.94
2022-12-05T19:52:17.773Z,102075.09
2022-12-05T19:57:19.846Z,102079.72
2022-12-05T20:02:24.116Z,102090.16
2022-12-05T20:07:25.859Z,102092.03
2022-12-05T20:12:27.489Z,102080.56
2022-12-05T20:17:29.133Z,102077.94
2022-12-05T20:22:31.027Z,102078.69
2022-12-05T20:27:34.111Z,102083.66
2022-12-05T20:32:35.761Z,102080.19
2022-12-05T20:37:37.647Z,102072.47
2022-12-05T20:42:44.969Z,102085.63
2022-12-05T20:47:48.278Z,102082.03
2022-12-05T20:52:49.939Z,102093.97
2022-12-05T20:57:53.699Z,102090.88
2022-12-05T21:02:56.727Z,102082.56
2022-12-05T21:07:58.472Z,102081.81
2022-12-05T21:13:00.117Z,102071.84
2022-12-05T21:18:02.093Z,102070.88
2022-12-05T21:23:04.065Z,102068.72
2022-12-05T21:28:05.746Z,102066.13
2022-12-05T21:33:07.435Z,102063.13
2022-12-05T21:38:09.085Z,102061.38
2022-12-05T21:43:10.726Z,102057.25
2022-12-05T21:48:12.374Z,102054.38
2022-12-05T21:53:14.189Z,102059.63
2022-12-05T21:58:15.909Z,102058.03
2022-12-05T22:03:17.579Z,102063.63
2022-12-05T22:08:19.324Z,102067.13
2022-12-05T22:13:21.039Z,102073.72
2022-12-05T22:18:22.973Z,102068.47
2022-12-05T22:23:25.261Z,102075.84
2022-12-05T22:28:28.254Z,102079.81
2022-12-05T22:33:31.682Z,102079.53
2022-12-05T22:38:39.095Z,102081.53
2022-12-05T22:43:42.087Z,102086.28
2022-12-05T22:48:44.479Z,102079.31
2022-12-05T22:53:49.724Z,102089.84
2022-12-05T22:58:59.826Z,102084.16
2022-12-05T23:04:06.418Z,102079.06
2022-12-05T23:09:10.104Z,102073.59
2022-12-05T23:14:11.780Z,102065.75
2022-12-05T23:19:13.410Z,102064.28
2022-12-05T23:24:15.036Z,102063.66
2022-12-05T23:29:16.649Z,102074.53
2022-12-05T23:34:18.364Z,102059.94
2022-12-05T23:39:20.169Z,102060.47
2022-12-05T23:44:22.734Z,102054.50
2022-12-05T23:49:24.368Z,102054.75
2022-12-05T23:54:26.105Z,102060.50
2022-12-05T23:59:27.765Z,102058.50
